Time;durP1;ratioP1;P1;durP2;ratioP2;P2;SDS_P1;SDS_P2;PMS_P1;PMS_P2;Temp;Humidity;BMP_temperature;BMP_pressure;BME280_temperature;BME280_humidity;BME280_pressure;Samples;Min_cycle;Max_cycle;Signal;HPM_P1;HPM_P2
2021/10/21 00:02:11;;;;;;;16.42;9.90;;;333.70;2329.60;;;;;;5110654;28;20477;-52
2021/10/21 00:04:37;;;;;;;19.52;12.25;;;358.40;2329.60;;;;;;5110703;28;20032;-53
2021/10/21 00:07:03;;;;;;;19.33;14.60;;;333.70;2329.60;;;;;;5110271;28;20350;-52
2021/10/21 00:09:28;;;;;;;18.83;11.85;;;333.70;2329.60;;;;;;5110732;28;20059;-56
2021/10/21 00:11:54;;;;;;;17.50;11.35;;;333.60;2329.60;;;;;;5110278;28;20473;-57
2021/10/21 00:14:20;;;;;;;17.63;11.75;;;333.50;2329.60;;;;;;5110345;28;20031;-57
2021/10/21 00:16:46;;;;;;;20.70;14.10;;;333.50;2329.60;;;;;;5110430;28;20024;-54
2021/10/21 00:19:12;;;;;;;13.75;10.27;;;333.30;2329.60;;;;;;5110136;28;20030;-56
2021/10/21 00:21:37;;;;;;;15.00;10.30;;;333.20;2329.60;;;;;;5110555;28;20042;-57
2021/10/21 00:24:03;;;;;;;13.60;9.02;;;333.20;2329.60;;;;;;5110393;28;20026;-52
2021/10/21 00:26:29;;;;;;;11.95;8.73;;;333.20;2329.60;;;;;;5110736;28;20058;-57
2021/10/21 00:28:55;;;;;;;13.95;9.93;;;333.20;2329.60;;;;;;5110328;28;20024;-53
2021/10/21 00:31:20;;;;;;;11.93;8.73;;;333.20;2329.60;;;;;;5110164;28;20393;-53
2021/10/21 00:33:46;;;;;;;12.02;9.50;;;333.30;2329.60;;;;;;5113600;28;20016;-55
2021/10/21 00:36:12;;;;;;;13.13;9.00;;;333.30;2329.60;;;;;;5114352;28;20027;-58
2021/10/21 00:38:38;;;;;;;13.13;9.20;;;333.40;2329.60;;;;;;5114542;28;20463;-57
2021/10/21 00:41:05;;;;;;;12.10;8.05;;;333.40;2329.60;;;;;;5114231;28;20035;-53
2021/10/21 00:43:38;;;;;;;26.77;17.00;;;333.40;2329.60;;;;;;5114387;28;20430;-53
2021/10/21 00:46:09;;;;;;;20.25;13.82;;;333.40;2329.60;;;;;;5114317;28;20108;-58
2021/10/21 00:48:35;;;;;;;20.90;13.40;;;333.20;2329.60;;;;;;5114204;28;20107;-57
2021/10/21 00:51:06;;;;;;;36.53;21.25;;;333.00;2329.60;;;;;;5114357;28;20389;-52
2021/10/21 00:53:33;;;;;;;27.58;15.57;;;332.90;2329.60;;;;;;5114102;28;20020;-53
2021/10/21 00:56:00;;;;;;;14.70;10.88;;;332.90;2329.60;;;;;;5114223;28;20404;-58
2021/10/21 00:58:26;;;;;;;14.10;10.02;;;307.90;2304.00;;;;;;5113848;28;20111;-55
2021/10/21 01:00:53;;;;;;;20.85;13.27;;;307.80;2304.00;;;;;;5113637;28;20130;-54
2021/10/21 01:03:19;;;;;;;26.38;16.58;;;307.80;2304.00;;;;;;5114310;28;20098;-52
2021/10/21 01:05:45;;;;;;;29.15;20.83;;;307.80;2304.00;;;;;;5113849;28;20565;-57
2021/10/21 01:08:12;;;;;;;20.88;15.30;;;307.60;2304.00;;;;;;5113742;28;20056;-53
2021/10/21 01:10:38;;;;;;;20.20;14.65;;;307.70;2304.00;;;;;;5113854;28;20051;-58
2021/10/21 01:13:04;;;;;;;30.52;27.10;;;307.80;2304.00;;;;;;5113439;28;20051;-52
2021/10/21 01:15:31;;;;;;;30.85;17.05;;;307.80;2304.00;;;;;;5113826;28;20046;-53
2021/10/21 01:17:57;;;;;;;15.75;11.85;;;307.90;2304.00;;;;;;5113661;28;20027;-57
2021/10/21 01:20:25;;;;;;;52.53;27.63;;;307.80;2304.00;;;;;;5113578;28;20035;-57
2021/10/21 01:22:51;;;;;;;15.27;8.45;;;307.80;2304.00;;;;;;5113488;28;20106;-52
2021/10/21 01:25:17;;;;;;;14.23;8.75;;;307.70;2304.00;;;;;;5113696;28;20487;-56
2021/10/21 01:27:44;;;;;;;11.23;8.00;;;307.70;2304.00;;;;;;5113467;28;20365;-57
2021/10/21 01:30:27;;;;;;;12.23;8.27;;;307.70;2304.00;;;;;;5113036;28;20027;-53
2021/10/21 01:32:56;;;;;;;9.93;7.47;;;307.70;2304.00;;;;;;5113431;28;20031;-58
2021/10/21 01:35:22;;;;;;;8.45;6.53;;;307.70;2304.00;;;;;;5113108;28;20023;-56
2021/10/21 01:37:48;;;;;;;9.77;6.50;;;307.60;2304.00;;;;;;5113357;28;20023;-57
2021/10/21 01:40:19;;;;;;;10.48;6.78;;;307.60;2304.00;;;;;;5113143;28;20377;-52
2021/10/21 01:42:45;;;;;;;10.30;8.27;;;307.50;2304.00;;;;;;5113029;28;20023;-53
2021/10/21 01:45:19;;;;;;;11.00;7.13;;;307.50;2304.00;;;;;;5112184;28;20378;-53
2021/10/21 01:47:45;;;;;;;14.95;8.07;;;307.30;2304.00;;;;;;5113288;28;20415;-57
2021/10/21 01:50:11;;;;;;;11.52;8.15;;;307.40;2304.00;;;;;;5113003;28;20023;-52
2021/10/21 01:52:37;;;;;;;9.60;7.60;;;307.50;2304.00;;;;;;5113100;28;20533;-52
2021/10/21 01:55:04;;;;;;;11.43;7.10;;;307.60;2304.00;;;;;;5112862;28;20110;-56
2021/10/21 01:57:30;;;;;;;10.88;7.38;;;307.70;2304.00;;;;;;5112929;28;20590;-53
2021/10/21 01:59:56;;;;;;;17.67;9.63;;;307.60;2304.00;;;;;;5112649;28;20047;-52
2021/10/21 02:02:21;;;;;;;76.25;39.15;;;307.60;2304.00;;;;;;5112618;28;20028;-53
2021/10/21 02:04:47;;;;;;;15.63;10.32;;;307.60;2304.00;;;;;;5112892;28;20077;-56
2021/10/21 02:07:13;;;;;;;20.08;13.05;;;307.60;2304.00;;;;;;5111466;28;20108;-58
2021/10/21 02:09:38;;;;;;;18.17;12.52;;;307.50;2304.00;;;;;;5112645;28;20069;-54
2021/10/21 02:12:05;;;;;;;18.27;12.15;;;307.60;2304.00;;;;;;5112472;28;20020;-58
2021/10/21 02:14:30;;;;;;;14.65;10.13;;;307.60;2304.00;;;;;;5112520;28;20172;-52
2021/10/21 02:16:57;;;;;;;13.43;8.02;;;307.50;2304.00;;;;;;5112626;28;20068;-55
2021/10/21 02:19:23;;;;;;;12.75;8.38;;;307.50;2304.00;;;;;;5112397;28;20441;-57
2021/10/21 02:21:49;;;;;;;13.35;9.90;;;307.30;2304.00;;;;;;5112603;28;20039;-57
2021/10/21 02:24:15;;;;;;;14.23;10.57;;;307.20;2304.00;;;;;;5112248;28;20015;-58
2021/10/21 02:26:40;;;;;;;16.70;11.10;;;282.50;2278.40;;;;;;5112217;28;20065;-53
2021/10/21 02:29:06;;;;;;;16.88;11.23;;;282.40;2278.40;;;;;;5112120;28;20503;-53
2021/10/21 02:31:32;;;;;;;11.82;9.23;;;282.40;2278.40;;;;;;5112330;28;20031;-57
2021/10/21 02:33:58;;;;;;;15.32;9.18;;;282.40;2278.40;;;;;;5112403;28;20111;-59
2021/10/21 02:36:23;;;;;;;11.50;7.65;;;282.40;2278.40;;;;;;5112089;28;20024;-53
2021/10/21 02:38:49;;;;;;;13.20;9.90;;;282.30;2278.40;;;;;;5112115;28;20028;-58
2021/10/21 02:41:15;;;;;;;20.38;11.13;;;282.40;2278.40;;;;;;5111970;28;20038;-53
2021/10/21 02:43:42;;;;;;;25.67;14.13;;;282.30;2278.40;;;;;;5111810;28;20080;-54
2021/10/21 02:46:08;;;;;;;16.25;9.60;;;282.30;2278.40;;;;;;5112117;28;20061;-59
2021/10/21 02:48:34;;;;;;;13.27;9.57;;;282.20;2278.40;;;;;;5111785;28;20098;-59
2021/10/21 02:51:00;;;;;;;15.32;8.95;;;282.20;2278.40;;;;;;5111976;28;20112;-54
2021/10/21 02:53:25;;;;;;;15.35;9.48;;;281.90;2278.40;;;;;;5112105;28;20023;-58
2021/10/21 02:55:51;;;;;;;13.98;8.85;;;281.90;2278.40;;;;;;5111652;28;20080;-55
2021/10/21 02:58:17;;;;;;;14.32;9.38;;;281.90;2278.40;;;;;;5111479;28;20046;-54
2021/10/21 03:00:43;;;;;;;13.02;7.97;;;281.90;2278.40;;;;;;5111548;28;20122;-59
2021/10/21 03:03:08;;;;;;;13.55;8.93;;;281.70;2278.40;;;;;;5111826;28;20024;-54
2021/10/21 03:05:34;;;;;;;18.38;12.75;;;281.70;2278.40;;;;;;5111382;28;20035;-59
2021/10/21 03:08:00;;;;;;;20.08;11.68;;;281.70;2278.40;;;;;;5111817;28;20027;-55
2021/10/21 03:10:26;;;;;;;28.05;16.92;;;281.60;2278.40;;;;;;5111753;28;20431;-59
2021/10/21 03:12:51;;;;;;;25.05;17.13;;;281.60;2278.40;;;;;;5111355;28;20031;-54
2021/10/21 03:15:17;;;;;;;23.40;15.95;;;281.60;2278.40;;;;;;5111634;28;20032;-54
2021/10/21 03:17:43;;;;;;;24.13;16.85;;;281.60;2278.40;;;;;;5111320;28;20054;-53
2021/10/21 03:20:12;;;;;;;24.05;15.82;;;281.60;2278.40;;;;;;5111100;28;20063;-60
2021/10/21 03:22:40;;;;;;;22.70;16.00;;;281.60;2278.40;;;;;;5111318;28;20019;-59
2021/10/21 03:25:08;;;;;;;15.68;12.02;;;281.60;2278.40;;;;;;5111379;28;20026;-57
2021/10/21 03:27:34;;;;;;;18.30;12.73;;;256.90;2252.80;;;;;;5111083;28;20020;-54
2021/10/21 03:30:00;;;;;;;12.88;8.07;;;256.90;2252.80;;;;;;5110849;28;20032;-55
2021/10/21 03:32:26;;;;;;;12.40;7.53;;;256.50;2252.80;;;;;;5107832;28;20032;-54
2021/10/21 03:34:52;;;;;;;10.85;7.53;;;256.50;2252.80;;;;;;5110574;28;20038;-54
2021/10/21 03:37:18;;;;;;;10.93;7.65;;;256.60;2252.80;;;;;;5105376;28;20512;-52
2021/10/21 03:39:43;;;;;;;22.88;12.02;;;256.70;2252.80;;;;;;5107624;28;20104;-54
2021/10/21 03:42:09;;;;;;;20.35;13.57;;;256.80;2252.80;;;;;;5111018;28;20032;-57
2021/10/21 03:44:36;;;;;;;30.77;18.20;;;256.70;2252.80;;;;;;5111165;28;20015;-52
2021/10/21 03:47:03;;;;;;;19.92;12.82;;;256.70;2252.80;;;;;;5108788;28;20038;-55
2021/10/21 03:49:30;;;;;;;16.40;11.50;;;256.60;2252.80;;;;;;5110699;28;20024;-59
2021/10/21 03:51:56;;;;;;;21.00;13.57;;;256.70;2252.80;;;;;;5111158;28;20063;-55
2021/10/21 03:54:22;;;;;;;19.77;12.77;;;256.70;2252.80;;;;;;5110607;28;20457;-58
2021/10/21 03:56:48;;;;;;;12.93;10.02;;;256.50;2252.80;;;;;;5110719;28;20031;-60
2021/10/21 03:59:14;;;;;;;12.85;8.93;;;256.30;2252.80;;;;;;5110346;28;20516;-59
2021/10/21 04:01:40;;;;;;;14.45;7.70;;;256.40;2252.80;;;;;;5110803;28;20088;-59
2021/10/21 04:04:06;;;;;;;12.65;8.90;;;256.30;2252.80;;;;;;5110660;28;20024;-55
2021/10/21 04:06:32;;;;;;;14.38;8.65;;;256.30;2252.80;;;;;;5110736;28;20034;-58
2021/10/21 04:08:58;;;;;;;93.18;48.05;;;256.40;2252.80;;;;;;5110412;28;20465;-59
2021/10/21 04:11:24;;;;;;;34.25;19.90;;;256.50;2252.80;;;;;;5110515;28;20107;-59
2021/10/21 04:13:50;;;;;;;51.50;27.88;;;256.50;2252.80;;;;;;5110619;28;20043;-60
2021/10/21 04:16:16;;;;;;;62.58;35.85;;;256.60;2252.80;;;;;;5110456;28;20514;-53
2021/10/21 04:18:41;;;;;;;45.38;28.08;;;256.50;2252.80;;;;;;5110163;28;20035;-59
2021/10/21 04:21:07;;;;;;;25.88;20.13;;;256.40;2252.80;;;;;;5110334;28;20438;-59
2021/10/21 04:23:33;;;;;;;20.15;10.02;;;256.30;2252.80;;;;;;5110365;28;20024;-54
2021/10/21 04:25:58;;;;;;;10.77;7.72;;;256.10;2252.80;;;;;;5110729;28;20038;-60
2021/10/21 04:28:24;;;;;;;12.18;7.93;;;231.10;2252.80;;;;;;5109591;28;20032;-53
2021/10/21 04:30:50;;;;;;;9.82;6.68;;;230.80;2252.80;;;;;;5110148;28;20111;-57
2021/10/21 04:33:15;;;;;;;32.10;19.98;;;230.60;2252.80;;;;;;5110668;28;20016;-59
2021/10/21 04:35:41;;;;;;;17.05;9.18;;;230.80;2252.80;;;;;;5110435;28;20503;-56
2021/10/21 04:38:07;;;;;;;23.15;14.18;;;231.10;2252.80;;;;;;5110770;28;20016;-56
2021/10/21 04:40:33;;;;;;;55.03;40.78;;;231.30;2252.80;;;;;;5110351;28;20473;-54
2021/10/21 04:42:59;;;;;;;19.20;12.93;;;256.10;2252.80;;;;;;5110115;28;20020;-55
2021/10/21 04:45:25;;;;;;;22.10;13.57;;;256.10;2252.80;;;;;;5110085;28;20075;-58
2021/10/21 04:47:56;;;;;;;19.42;13.07;;;256.20;2252.80;;;;;;5110225;28;20521;-56
2021/10/21 04:50:23;;;;;;;22.23;16.92;;;256.30;2252.80;;;;;;5109755;28;20084;-54
2021/10/21 04:52:52;;;;;;;18.77;12.60;;;256.40;2252.80;;;;;;5107778;28;20073;-58
2021/10/21 04:55:20;;;;;;;17.00;10.60;;;256.50;2252.80;;;;;;5108203;28;20435;-54
2021/10/21 04:57:47;;;;;;;28.23;17.13;;;256.50;2252.80;;;;;;5108622;28;20067;-54
2021/10/21 05:00:13;;;;;;;26.63;15.82;;;256.60;2252.80;;;;;;5108168;28;20051;-59
2021/10/21 05:02:39;;;;;;;33.67;21.45;;;256.70;2252.80;;;;;;5108719;28;20031;-53
2021/10/21 05:05:05;;;;;;;76.72;46.30;;;256.80;2252.80;;;;;;5107935;28;20372;-60
2021/10/21 05:07:31;;;;;;;32.30;22.77;;;256.60;2252.80;;;;;;5108367;28;20023;-55
2021/10/21 05:09:57;;;;;;;37.03;26.05;;;256.50;2252.80;;;;;;5108495;28;20024;-58
2021/10/21 05:12:23;;;;;;;36.65;23.58;;;256.40;2252.80;;;;;;5106933;28;20092;-57
2021/10/21 05:14:49;;;;;;;18.55;12.15;;;256.20;2252.80;;;;;;5108348;28;20441;-54
2021/10/21 05:17:15;;;;;;;18.15;13.02;;;256.20;2252.80;;;;;;5107819;28;20102;-54
2021/10/21 05:19:41;;;;;;;17.83;12.65;;;256.20;2252.80;;;;;;5109625;28;20024;-55
2021/10/21 05:22:07;;;;;;;15.00;11.02;;;256.30;2252.80;;;;;;5112076;28;20052;-61
2021/10/21 05:24:33;;;;;;;19.65;10.10;;;256.30;2252.80;;;;;;5112036;28;20026;-67
2021/10/21 05:26:59;;;;;;;18.50;11.38;;;256.30;2252.80;;;;;;5112144;28;20113;-69
2021/10/21 05:29:26;;;;;;;21.42;16.20;;;256.30;2252.80;;;;;;5111833;28;20080;-62
2021/10/21 05:31:52;;;;;;;16.33;12.48;;;256.50;2252.80;;;;;;5111355;28;20036;-64
2021/10/21 05:34:18;;;;;;;25.83;13.68;;;256.60;2252.80;;;;;;5112232;28;20072;-56
2021/10/21 05:36:44;;;;;;;44.92;26.65;;;256.70;2252.80;;;;;;5111820;28;20041;-62
2021/10/21 05:39:10;;;;;;;79.20;52.47;;;256.70;2252.80;;;;;;5111968;28;20038;-57
2021/10/21 05:41:36;;;;;;;43.42;23.67;;;256.40;2252.80;;;;;;5111757;28;20085;-63
2021/10/21 05:44:02;;;;;;;46.13;24.27;;;256.40;2252.80;;;;;;5111123;28;20023;-59
2021/10/21 05:46:27;;;;;;;38.53;20.60;;;256.40;2252.80;;;;;;5111502;28;20439;-69
2021/10/21 05:48:53;;;;;;;13.82;9.25;;;256.50;2252.80;;;;;;5111398;28;20028;-64
2021/10/21 05:51:19;;;;;;;16.10;7.97;;;256.50;2252.80;;;;;;5111780;28;20038;-65
2021/10/21 05:53:45;;;;;;;31.05;17.50;;;256.60;2252.80;;;;;;5111346;28;20023;-56
2021/10/21 05:56:11;;;;;;;17.67;10.63;;;256.60;2252.80;;;;;;5110920;28;20377;-58
2021/10/21 05:58:38;;;;;;;180.27;124.60;;;256.70;2252.80;;;;;;5111092;28;20107;-68
2021/10/21 06:01:04;;;;;;;112.00;82.13;;;256.40;2252.80;;;;;;5110853;28;20054;-59
2021/10/21 06:03:35;;;;;;;201.88;117.75;;;256.30;2252.80;;;;;;5111305;28;20023;-60
2021/10/21 06:06:02;;;;;;;82.18;56.92;;;256.50;2252.80;;;;;;5111338;28;20510;-69
2021/10/21 06:08:28;;;;;;;128.93;78.72;;;256.70;2252.80;;;;;;5111338;28;20106;-57
2021/10/21 06:10:53;;;;;;;114.10;72.15;;;256.90;2252.80;;;;;;5110616;28;20103;-59
2021/10/21 06:13:19;;;;;;;127.60;85.70;;;256.90;2252.80;;;;;;5111104;28;20856;-59
2021/10/21 06:15:45;;;;;;;214.32;116.88;;;281.60;2278.40;;;;;;5111094;28;20034;-66
2021/10/21 06:18:13;;;;;;;125.15;87.35;;;281.80;2278.40;;;;;;5110834;28;20023;-66
2021/10/21 06:20:41;;;;;;;117.82;80.80;;;281.80;2278.40;;;;;;5111006;28;20038;-65
2021/10/21 06:23:07;;;;;;;101.00;70.18;;;282.00;2278.40;;;;;;5110607;28;20114;-60
2021/10/21 06:25:33;;;;;;;203.35;151.60;;;281.90;2278.40;;;;;;5110876;28;20024;-64
2021/10/21 06:27:59;;;;;;;89.97;60.10;;;282.00;2278.40;;;;;;5110740;28;20020;-64
2021/10/21 06:30:25;;;;;;;84.47;62.92;;;282.10;2278.40;;;;;;5110286;28;20401;-62
2021/10/21 06:32:51;;;;;;;61.38;46.83;;;282.30;2278.40;;;;;;5110581;28;20536;-59
2021/10/21 06:35:16;;;;;;;27.88;19.95;;;282.30;2278.40;;;;;;5110257;28;20036;-63
2021/10/21 06:37:47;;;;;;;28.63;21.25;;;282.50;2278.40;;;;;;5110654;28;20548;-65
2021/10/21 06:40:13;;;;;;;30.45;18.15;;;307.20;2304.00;;;;;;5110451;28;20031;-68
2021/10/21 06:42:39;;;;;;;48.28;35.38;;;307.40;2304.00;;;;;;5110526;28;20031;-68
2021/10/21 06:45:05;;;;;;;42.97;31.80;;;307.50;2304.00;;;;;;5110545;28;20518;-68
2021/10/21 06:47:33;;;;;;;26.70;20.20;;;307.70;2304.00;;;;;;5110313;28;20023;-60
2021/10/21 06:49:59;;;;;;;26.58;17.55;;;307.90;2304.00;;;;;;5110015;28;20016;-67
2021/10/21 06:52:25;;;;;;;28.05;19.00;;;308.10;2304.00;;;;;;5110350;28;20051;-61
2021/10/21 06:54:50;;;;;;;24.75;19.35;;;333.00;2329.60;;;;;;5110200;28;20074;-66
2021/10/21 06:57:17;;;;;;;137.70;96.03;;;333.10;2329.60;;;;;;5110704;28;20032;-64
2021/10/21 06:59:43;;;;;;;234.82;165.70;;;333.10;2329.60;;;;;;5111757;28;20047;-67
2021/10/21 07:02:09;;;;;;;142.25;100.78;;;333.00;2329.60;;;;;;5111666;28;20085;-68
2021/10/21 07:04:35;;;;;;;90.25;63.22;;;333.00;2329.60;;;;;;5111961;28;20500;-68
2021/10/21 07:07:00;;;;;;;55.63;40.00;;;333.20;2329.60;;;;;;5111638;28;20024;-63
2021/10/21 07:09:26;;;;;;;58.75;48.75;;;333.60;2329.60;;;;;;5111645;28;20039;-69
2021/10/21 07:11:52;;;;;;;71.57;59.63;;;358.90;2329.60;;;;;;5111281;28;20027;-66
2021/10/21 07:14:17;;;;;;;56.42;39.22;;;410.40;2355.20;;;;;;5111373;28;20496;-66
2021/10/21 07:16:43;;;;;;;99.25;70.82;;;461.30;2380.80;;;;;;5111083;28;20373;-57
2021/10/21 07:19:10;;;;;;;116.60;88.05;;;461.00;2380.80;;;;;;5111436;28;20097;-69
2021/10/21 07:21:36;;;;;;;74.45;58.50;;;461.40;2380.80;;;;;;5111405;28;20033;-67
2021/10/21 07:24:02;;;;;;;80.10;64.47;;;486.70;2380.80;;;;;;5111325;28;20015;-67
2021/10/21 07:26:27;;;;;;;70.18;50.22;;;486.70;2380.80;;;;;;5111422;28;20480;-64
2021/10/21 07:28:53;;;;;;;65.72;44.05;;;486.50;2380.80;;;;;;5111285;28;20059;-67
2021/10/21 07:31:21;;;;;;;57.15;43.70;;;461.70;2380.80;;;;;;5109837;28;20462;-68
2021/10/21 07:33:46;;;;;;;43.95;33.42;;;486.50;2380.80;;;;;;5111375;28;20024;-67
2021/10/21 07:36:13;;;;;;;46.70;38.28;;;512.40;2380.80;;;;;;5111149;28;20484;-64
2021/10/21 07:38:39;;;;;;;38.95;34.75;;;538.00;2304.00;;;;;;5111416;28;20358;-68
2021/10/21 07:41:05;;;;;;;43.63;38.67;;;589.10;2124.80;;;;;;5110799;28;20036;-64
2021/10/21 07:43:35;;;;;;;52.50;45.55;;;614.70;2022.40;;;;;;5110289;28;20016;-64
2021/10/21 07:46:02;;;;;;;95.28;84.82;;;665.90;1843.20;;;;;;5110989;28;20027;-61
2021/10/21 07:48:28;;;;;;;83.68;73.47;;;640.10;1843.20;;;;;;5111267;28;20088;-63
2021/10/21 07:50:53;;;;;;;88.30;79.15;;;666.20;1766.40;;;;;;5110831;28;20473;-65
2021/10/21 07:53:19;;;;;;;76.47;68.50;;;691.40;1689.60;;;;;;5110962;28;20374;-66
2021/10/21 07:55:45;;;;;;;91.90;82.32;;;691.80;1638.40;;;;;;5110637;28;20118;-66
2021/10/21 07:58:11;;;;;;;76.90;68.90;;;717.00;1612.80;;;;;;5110477;28;20020;-63
2021/10/21 08:00:36;;;;;;;118.47;106.18;;;717.40;1536.00;;;;;;5110559;28;20058;-65
2021/10/21 08:03:03;;;;;;;73.72;66.13;;;666.50;1612.80;;;;;;5110426;28;20048;-66
2021/10/21 08:05:29;;;;;;;81.65;73.30;;;691.70;1561.60;;;;;;5111005;28;20020;-63
2021/10/21 08:07:55;;;;;;;111.93;99.93;;;691.60;1638.40;;;;;;5110539;28;20037;-66
2021/10/21 08:10:23;;;;;;;46.92;42.13;;;666.20;1664.00;;;;;;5110436;28;20031;-64
2021/10/21 08:12:50;;;;;;;107.45;96.35;;;692.10;1484.80;;;;;;5110619;28;20465;-64
2021/10/21 08:15:16;;;;;;;77.63;69.70;;;717.50;1433.60;;;;;;5110417;28;20475;-65
2021/10/21 08:17:43;;;;;;;50.55;44.53;;;742.70;1382.40;;;;;;5110556;28;20089;-65
2021/10/21 08:20:12;;;;;;;40.20;36.30;;;742.70;1433.60;;;;;;5110340;28;20092;-65
2021/10/21 08:22:47;;;;;;;48.17;43.47;;;768.00;1356.80;;;;;;5110369;28;20522;-66
2021/10/21 08:25:15;;;;;;;16.08;14.40;;;743.10;1305.60;;;;;;5110015;28;20023;-68
2021/10/21 08:27:41;;;;;;;79.57;71.55;;;768.40;1280.00;;;;;;5110348;28;20036;-60
2021/10/21 08:30:08;;;;;;;100.20;89.88;;;742.40;1408.00;;;;;;5110435;28;20032;-65
2021/10/21 08:32:35;;;;;;;101.22;90.43;;;717.70;1433.60;;;;;;5110116;28;20035;-64
2021/10/21 08:35:01;;;;;;;93.50;84.03;;;743.00;1433.60;;;;;;5110316;28;20045;-65
2021/10/21 08:37:27;;;;;;;240.70;211.18;;;742.90;1408.00;;;;;;5110578;28;20108;-66
2021/10/21 08:39:53;;;;;;;101.97;91.93;;;793.60;1382.40;;;;;;5110277;28;20477;-66
2021/10/21 08:42:19;;;;;;;84.90;76.53;;;794.00;1305.60;;;;;;5110293;28;20031;-66
2021/10/21 08:44:46;;;;;;;60.90;54.35;;;794.50;1305.60;;;;;;5110011;28;20030;-67
2021/10/21 08:47:12;;;;;;;68.05;59.10;;;793.70;1331.20;;;;;;5110391;28;20045;-67
2021/10/21 08:49:41;;;;;;;49.72;44.55;;;819.50;1280.00;;;;;;5110619;28;20020;-67
2021/10/21 08:52:07;;;;;;;46.47;41.90;;;794.00;1305.60;;;;;;5110465;28;20076;-66
2021/10/21 08:54:33;;;;;;;33.88;30.05;;;794.10;1254.40;;;;;;5112797;28;20357;-63
2021/10/21 08:57:02;;;;;;;111.10;79.85;;;794.30;1254.40;;;;;;5114424;28;20084;-65
2021/10/21 08:59:28;;;;;;;57.83;51.60;;;819.80;1254.40;;;;;;5113864;28;20052;-66
2021/10/21 09:02:10;;;;;;;201.48;168.32;;;844.90;1254.40;;;;;;5113840;28;20042;-66
2021/10/21 09:04:55;;;;;;;54.25;48.53;;;819.90;1254.40;;;;;;5114262;28;20032;-66
2021/10/21 09:10:11;;;;;;;32.75;29.33;;;793.70;1280.00;;;;;;5114324;28;20090;-66
2021/10/21 09:12:47;;;;;;;75.05;57.85;;;743.10;1305.60;;;;;;5114023;28;20032;-65
2021/10/21 09:15:18;;;;;;;83.00;61.50;;;742.40;1331.20;;;;;;5113607;28;20107;-63
2021/10/21 09:17:45;;;;;;;37.75;28.75;;;716.80;1305.60;;;;;;5113700;28;20063;-66
2021/10/21 09:20:37;;;;;;;38.28;19.00;;;691.70;1356.80;;;;;;5113484;28;20024;-61
2021/10/21 09:23:11;;;;;;;16.92;13.13;;;666.40;1408.00;;;;;;5113368;28;20504;-63
2021/10/21 09:25:39;;;;;;;11.95;9.20;;;666.30;1382.40;;;;;;5113758;28;20110;-60
2021/10/21 09:28:26;;;;;;;16.52;11.93;;;666.20;1408.00;;;;;;5113495;28;20035;-65
2021/10/21 09:30:57;;;;;;;13.77;9.40;;;665.70;1382.40;;;;;;5113605;28;20119;-66
2021/10/21 09:33:24;;;;;;;24.38;16.25;;;640.70;1433.60;;;;;;5113730;28;20335;-64
2021/10/21 09:36:00;;;;;;;21.65;16.05;;;640.70;1408.00;;;;;;5113685;28;20024;-67
2021/10/21 09:38:33;;;;;;;30.63;19.02;;;640.30;1408.00;;;;;;5113476;28;20028;-61
2021/10/21 09:41:17;;;;;;;29.20;20.90;;;640.60;1382.40;;;;;;5113544;28;20114;-59
2021/10/21 09:43:43;;;;;;;25.50;18.85;;;640.20;1382.40;;;;;;5113087;28;20019;-66
2021/10/21 09:46:28;;;;;;;84.32;63.05;;;640.20;1356.80;;;;;;5113398;28;20084;-65
2021/10/21 09:49:28;;;;;;;85.40;66.85;;;640.40;1356.80;;;;;;5112981;28;20119;-66
2021/10/21 09:51:54;;;;;;;23.95;17.90;;;640.10;1382.40;;;;;;5112889;28;20098;-65
2021/10/21 09:54:21;;;;;;;12.40;8.90;;;615.20;1433.60;;;;;;5113270;28;20047;-64
2021/10/21 09:56:56;;;;;;;7.32;6.13;;;615.20;1408.00;;;;;;5113336;28;20039;-65
2021/10/21 09:59:28;;;;;;;27.10;20.73;;;640.10;1433.60;;;;;;5112631;28;20043;-64
2021/10/21 10:01:57;;;;;;;15.88;11.95;;;640.30;1433.60;;;;;;5112675;28;20131;-64
2021/10/21 10:04:26;;;;;;;8.50;6.50;;;640.70;1356.80;;;;;;5112606;28;20024;-63
2021/10/21 10:06:58;;;;;;;14.18;11.55;;;640.90;1382.40;;;;;;5112169;28;20028;-64
2021/10/21 10:09:29;;;;;;;71.10;46.00;;;665.70;1459.20;;;;;;5112707;28;20034;-65
2021/10/21 10:11:56;;;;;;;13.70;7.38;;;665.60;1382.40;;;;;;5112361;28;20031;-65
2021/10/21 10:14:22;;;;;;;41.88;28.65;;;640.90;1305.60;;;;;;5112535;28;20095;-65
2021/10/21 10:16:48;;;;;;;7.45;6.30;;;665.90;1356.80;;;;;;5112441;28;20027;-66
2021/10/21 10:19:14;;;;;;;17.83;12.20;;;665.80;1331.20;;;;;;5112316;28;20099;-65
2021/10/21 10:21:42;;;;;;;14.52;9.13;;;640.80;1331.20;;;;;;5112550;28;20035;-65
2021/10/21 10:24:11;;;;;;;7.38;5.88;;;665.60;1356.80;;;;;;5112635;28;20373;-65
2021/10/21 10:26:44;;;;;;;10.07;7.63;;;665.70;1331.20;;;;;;5112420;28;20501;-64
2021/10/21 10:29:13;;;;;;;11.88;8.73;;;665.70;1459.20;;;;;;5111379;28;20382;-65
2021/10/21 10:31:54;;;;;;;6.85;4.82;;;665.60;1459.20;;;;;;5112215;28;20378;-63
2021/10/21 10:34:32;;;;;;;88.65;62.78;;;640.70;1408.00;;;;;;5112303;28;20024;-66
2021/10/21 10:37:13;;;;;;;11.35;9.00;;;640.30;1382.40;;;;;;5112324;28;20072;-66
2021/10/21 10:39:57;;;;;;;12.50;10.93;;;640.10;1433.60;;;;;;5112528;28;20024;-65
2021/10/21 10:42:28;;;;;;;8.25;5.70;;;615.30;1408.00;;;;;;5111744;28;20032;-65
2021/10/21 10:44:54;;;;;;;40.30;28.25;;;615.10;1433.60;;;;;;5112263;28;20027;-66
2021/10/21 10:47:49;;;;;;;23.05;18.10;;;615.10;1433.60;;;;;;5112238;28;20534;-65
2021/10/21 10:50:15;;;;;;;7.53;6.45;;;615.00;1459.20;;;;;;5110127;28;20031;-62
2021/10/21 10:52:59;;;;;;;7.07;5.57;;;615.20;1459.20;;;;;;5111944;28;20030;-66
2021/10/21 10:55:36;;;;;;;10.35;6.75;;;615.20;1459.20;;;;;;5110726;28;20400;-63
2021/10/21 10:58:03;;;;;;;14.65;9.95;;;615.20;1484.80;;;;;;5111732;28;20019;-66
2021/10/21 11:00:45;;;;;;;11.88;9.73;;;615.00;1459.20;;;;;;5111755;28;20134;-65
2021/10/21 11:03:12;;;;;;;10.20;7.55;;;615.00;1484.80;;;;;;5111495;28;20439;-62
2021/10/21 11:05:44;;;;;;;19.40;16.08;;;614.80;1459.20;;;;;;5111952;28;20098;-64
2021/10/21 11:08:11;;;;;;;11.67;9.10;;;614.70;1459.20;;;;;;5111706;28;20102;-66
2021/10/21 11:10:40;;;;;;;7.78;6.10;;;614.70;1484.80;;;;;;5111641;28;20035;-66
2021/10/21 11:13:31;;;;;;;8.85;6.35;;;614.60;1510.40;;;;;;5111622;28;20481;-64
2021/10/21 11:15:57;;;;;;;10.70;7.35;;;614.60;1510.40;;;;;;5111455;28;20049;-65
2021/10/21 11:18:38;;;;;;;21.92;15.45;;;614.50;1459.20;;;;;;5110294;28;20027;-62
2021/10/21 11:21:06;;;;;;;9.82;6.28;;;614.50;1484.80;;;;;;5111259;28;20035;-65
2021/10/21 11:23:32;;;;;;;8.35;7.30;;;589.70;1510.40;;;;;;5111230;28;20028;-65
2021/10/21 11:26:02;;;;;;;6.68;5.38;;;589.70;1510.40;;;;;;5111360;28;20030;-63
2021/10/21 11:28:30;;;;;;;9.77;6.60;;;589.30;1561.60;;;;;;5111273;28;20115;-65
2021/10/21 11:30:56;;;;;;;16.00;9.77;;;589.10;1612.80;;;;;;5111482;28;20034;-66
2021/10/21 11:33:22;;;;;;;13.50;8.73;;;589.10;1561.60;;;;;;5111041;28;20106;-64
2021/10/21 11:35:50;;;;;;;7.70;6.47;;;589.10;1561.60;;;;;;5111413;28;20123;-65
2021/10/21 11:38:19;;;;;;;19.60;13.55;;;589.10;1612.80;;;;;;5111308;28;20031;-65
2021/10/21 11:40:54;;;;;;;11.73;8.57;;;589.10;1587.20;;;;;;5111004;28;20062;-64
2021/10/21 11:43:26;;;;;;;11.13;7.65;;;589.10;1561.60;;;;;;5111056;28;20072;-66
2021/10/21 11:45:59;;;;;;;6.72;5.72;;;589.10;1561.60;;;;;;5111117;28;20020;-65
2021/10/21 11:48:32;;;;;;;10.60;7.55;;;589.20;1587.20;;;;;;5110768;28;20111;-63
2021/10/21 11:50:59;;;;;;;8.15;6.18;;;589.20;1638.40;;;;;;5111004;28;20027;-66
2021/10/21 11:53:27;;;;;;;27.23;16.17;;;589.20;1587.20;;;;;;5110832;28;20023;-65
2021/10/21 11:55:55;;;;;;;107.85;70.38;;;589.40;1561.60;;;;;;5110658;28;20023;-65
2021/10/21 11:58:31;;;;;;;75.85;47.60;;;589.60;1561.60;;;;;;5108513;28;20040;-56
2021/10/21 12:01:00;;;;;;;198.77;125.72;;;589.70;1561.60;;;;;;5109124;28;20122;-64
2021/10/21 12:03:41;;;;;;;22.35;17.15;;;589.70;1536.00;;;;;;5109170;28;20024;-63
2021/10/21 12:06:09;;;;;;;16.60;12.05;;;614.50;1536.00;;;;;;5109113;28;20027;-62
2021/10/21 12:08:37;;;;;;;45.90;31.42;;;614.70;1510.40;;;;;;5109134;28;20020;-66